createdAt,value
2019-03-17T00:01:56.717Z,68.65
2019-03-17T00:04:16.178Z,72.37
2019-03-17T00:06:46.003Z,70.87
2019-03-17T00:09:15.855Z,77.40
2019-03-17T00:11:45.752Z,72.17
2019-03-17T00:14:15.729Z,73.45
2019-03-17T00:16:45.536Z,75.55
2019-03-17T00:19:15.509Z,81.15
2019-03-17T00:21:45.374Z,80.28
2019-03-17T00:24:15.347Z,78.25
2019-03-17T00:26:45.328Z,73.02
2019-03-17T00:29:15.175Z,75.78
2019-03-17T00:31:45.080Z,73.28
2019-03-17T00:34:15.104Z,70.70
2019-03-17T00:36:44.882Z,70.20
2019-03-17T00:39:14.785Z,73.20
2019-03-17T00:41:44.728Z,72.87
2019-03-17T00:44:14.764Z,73.72
2019-03-17T00:46:44.592Z,72.82
2019-03-17T00:49:14.509Z,75.87
2019-03-17T00:51:44.356Z,75.00
2019-03-17T00:54:14.318Z,77.35
2019-03-17T00:56:44.215Z,80.00
2019-03-17T00:59:14.058Z,75.67
2019-03-17T01:01:43.967Z,71.42
2019-03-17T01:04:13.985Z,70.40
2019-03-17T01:06:45.011Z,79.58
2019-03-17T01:09:15.022Z,82.50
2019-03-17T01:11:44.992Z,79.82
2019-03-17T01:14:14.968Z,79.82
2019-03-17T01:16:44.873Z,84.85
2019-03-17T01:19:14.773Z,82.40
2019-03-17T01:21:44.747Z,83.58
2019-03-17T01:24:14.591Z,88.87
2019-03-17T01:26:44.494Z,87.02
2019-03-17T01:29:14.385Z,85.92
2019-03-17T01:31:44.300Z,83.60
2019-03-17T01:34:14.199Z,86.80
2019-03-17T01:36:44.099Z,85.38
2019-03-17T01:39:14.027Z,87.37
2019-03-17T01:41:44.938Z,91.87
2019-03-17T01:44:14.764Z,85.83
2019-03-17T01:46:44.802Z,91.37
2019-03-17T01:49:14.644Z,87.27
2019-03-17T01:51:44.537Z,86.12
2019-03-17T01:54:14.448Z,90.30
2019-03-17T01:56:44.356Z,93.20
2019-03-17T01:59:14.244Z,90.12
2019-03-17T02:01:44.286Z,90.67
2019-03-17T02:04:14.240Z,91.30
2019-03-17T02:06:44.137Z,91.60
2019-03-17T02:09:15.115Z,94.00
2019-03-17T02:11:45.038Z,93.00
2019-03-17T02:14:14.925Z,92.37
2019-03-17T02:16:44.926Z,94.00
2019-03-17T02:19:14.898Z,91.95
2019-03-17T02:21:44.733Z,91.87
2019-03-17T02:24:14.614Z,93.78
2019-03-17T02:26:44.468Z,90.80
2019-03-17T02:29:14.261Z,90.67
2019-03-17T02:31:44.271Z,93.78
2019-03-17T02:34:14.245Z,92.15
2019-03-17T02:36:44.139Z,91.12
2019-03-17T02:39:14.115Z,91.20
2019-03-17T02:41:44.085Z,86.67
2019-03-17T02:44:14.130Z,83.20
2019-03-17T02:46:44.018Z,89.58
2019-03-17T02:49:13.932Z,89.15
2019-03-17T02:51:43.893Z,93.37
2019-03-17T02:54:13.877Z,92.40
2019-03-17T02:56:43.924Z,92.02
2019-03-17T02:59:14.046Z,89.77
2019-03-17T03:01:44.209Z,84.92
2019-03-17T03:04:14.183Z,85.12
2019-03-17T03:06:44.000Z,81.82
2019-03-17T03:09:14.966Z,90.72
2019-03-17T03:11:44.873Z,86.47
2019-03-17T03:14:14.701Z,93.17
2019-03-17T03:16:44.677Z,92.45
2019-03-17T03:19:14.504Z,84.20
2019-03-17T03:21:44.420Z,86.05
2019-03-17T03:24:14.319Z,90.45
2019-03-17T03:26:44.259Z,85.55
2019-03-17T03:29:14.229Z,89.85
2019-03-17T03:31:44.130Z,89.67
2019-03-17T03:34:13.960Z,90.45
2019-03-17T03:36:43.864Z,87.92
2019-03-17T03:39:13.777Z,86.80
2019-03-17T03:41:43.752Z,84.75
2019-03-17T03:44:13.735Z,93.35
2019-03-17T03:46:44.617Z,95.12
2019-03-17T03:49:15.499Z,95.10
2019-03-17T03:51:45.393Z,97.37
2019-03-17T03:54:15.290Z,94.60
2019-03-17T03:56:45.140Z,101.80
2019-03-17T03:59:15.110Z,97.72
2019-03-17T04:01:45.014Z,101.97
2019-03-17T04:04:14.911Z,101.05
2019-03-17T04:06:45.972Z,98.25
2019-03-17T04:09:15.870Z,100.78
2019-03-17T04:11:45.772Z,99.55
2019-03-17T04:14:15.677Z,102.38
2019-03-17T04:16:45.761Z,102.02
2019-03-17T04:19:15.673Z,102.02
2019-03-17T04:21:45.527Z,107.15
2019-03-17T04:24:15.430Z,104.20
2019-03-17T04:26:46.424Z,96.50
2019-03-17T04:29:16.405Z,94.28
2019-03-17T04:31:46.421Z,99.00
2019-03-17T04:34:16.285Z,93.20
2019-03-17T04:36:46.251Z,90.45
2019-03-17T04:39:16.173Z,94.52
2019-03-17T04:41:46.001Z,98.47
2019-03-17T04:44:20.978Z,96.45
2019-03-17T04:46:47.380Z,90.83
2019-03-17T04:49:17.343Z,96.50
2019-03-17T04:51:47.365Z,94.85
2019-03-17T04:54:17.258Z,93.47
2019-03-17T04:56:47.180Z,100.53
2019-03-17T04:59:17.092Z,93.37
2019-03-17T05:01:47.000Z,95.40
2019-03-17T05:04:16.981Z,97.15
2019-03-17T05:06:52.453Z,88.60
2019-03-17T05:09:18.429Z,94.40
2019-03-17T05:11:48.401Z,93.35
2019-03-17T05:14:19.373Z,97.45
2019-03-17T05:16:49.351Z,98.90
2019-03-17T05:19:19.257Z,99.52
2019-03-17T05:21:49.210Z,84.95
2019-03-17T05:24:19.102Z,87.82
2019-03-17T05:26:48.929Z,91.47
2019-03-17T05:29:18.837Z,91.10
2019-03-17T05:31:48.806Z,88.67
2019-03-17T05:34:18.718Z,92.70
2019-03-17T05:36:48.614Z,91.15
2019-03-17T05:39:18.561Z,91.78
2019-03-17T05:41:48.466Z,89.70
2019-03-17T05:44:18.460Z,89.32
2019-03-17T05:46:48.385Z,88.67
2019-03-17T05:49:18.217Z,85.35
2019-03-17T05:51:48.124Z,81.90
2019-03-17T05:54:18.110Z,88.85
2019-03-17T05:56:48.083Z,89.70
2019-03-17T05:59:19.688Z,82.55
2019-03-17T06:01:49.649Z,86.12
2019-03-17T06:04:19.473Z,85.62
2019-03-17T06:06:49.308Z,91.97
2019-03-17T06:09:19.201Z,87.70
2019-03-17T06:11:49.040Z,86.12
2019-03-17T06:14:19.004Z,83.30
2019-03-17T06:16:49.056Z,89.52
2019-03-17T06:19:19.132Z,91.08
2019-03-17T06:21:49.037Z,90.60
2019-03-17T06:24:18.945Z,87.97
2019-03-17T06:26:48.841Z,84.30
2019-03-17T06:29:18.915Z,86.57
2019-03-17T06:31:49.709Z,84.60
2019-03-17T06:34:19.696Z,87.27
2019-03-17T06:36:49.593Z,84.22
2019-03-17T06:39:20.569Z,84.15
2019-03-17T06:41:50.464Z,85.00
2019-03-17T06:44:20.292Z,85.67
2019-03-17T06:46:50.121Z,83.00
2019-03-17T06:49:20.094Z,82.72
2019-03-17T06:51:49.932Z,84.80
2019-03-17T06:54:19.908Z,84.03
2019-03-17T06:56:49.742Z,85.17
2019-03-17T06:59:19.708Z,83.45
2019-03-17T07:01:49.681Z,84.58
2019-03-17T07:04:19.665Z,88.50
2019-03-17T07:06:49.717Z,86.85
2019-03-17T07:09:19.615Z,86.90
2019-03-17T07:11:49.603Z,87.60
2019-03-17T07:14:19.564Z,85.70
2019-03-17T07:16:49.476Z,85.32
2019-03-17T07:19:19.302Z,83.80
2019-03-17T07:21:49.286Z,86.35
2019-03-17T07:24:19.172Z,86.35
2019-03-17T07:26:50.095Z,90.47
2019-03-17T07:29:20.132Z,86.20
2019-03-17T07:31:50.037Z,85.95
2019-03-17T07:34:20.001Z,87.00
2019-03-17T07:36:49.910Z,85.92
2019-03-17T07:39:19.761Z,84.90
2019-03-17T07:41:49.815Z,84.92
2019-03-17T07:44:19.880Z,83.50
2019-03-17T07:46:49.931Z,85.25
2019-03-17T07:49:19.854Z,85.97
2019-03-17T07:51:49.696Z,86.22
2019-03-17T07:54:19.617Z,88.35
2019-03-17T07:56:49.595Z,88.67
2019-03-17T07:59:19.435Z,88.33
2019-03-17T08:01:49.350Z,88.97
2019-03-17T08:04:19.369Z,83.90
2019-03-17T08:06:49.285Z,84.47
2019-03-17T08:09:19.199Z,84.15
2019-03-17T08:11:49.049Z,84.50
2019-03-17T08:14:18.884Z,80.60
2019-03-17T08:16:48.732Z,81.12
2019-03-17T08:19:18.581Z,83.65
2019-03-17T08:21:48.573Z,85.80
2019-03-17T08:24:18.496Z,83.33
2019-03-17T08:26:50.096Z,81.72
2019-03-17T08:29:19.864Z,77.50
2019-03-17T08:31:49.833Z,75.97
2019-03-17T08:34:19.741Z,74.50
2019-03-17T08:36:49.743Z,72.65
2019-03-17T08:39:19.651Z,64.82
2019-03-17T08:41:49.552Z,57.23
2019-03-17T08:44:19.468Z,63.80
2019-03-17T08:46:49.373Z,60.98
2019-03-17T08:49:19.329Z,63.30
2019-03-17T08:51:49.304Z,65.30
2019-03-17T08:54:19.144Z,55.20
2019-03-17T08:56:49.138Z,54.35
2019-03-17T08:59:18.964Z,55.63
2019-03-17T09:01:48.867Z,56.50
2019-03-17T09:04:18.862Z,54.48
2019-03-17T09:06:48.779Z,48.00
2019-03-17T09:09:18.609Z,51.18
2019-03-17T09:11:48.566Z,53.17
2019-03-17T09:14:18.536Z,50.95
2019-03-17T09:16:49.527Z,52.98
2019-03-17T09:19:19.428Z,51.48
2019-03-17T09:21:49.260Z,45.88
2019-03-17T09:24:19.330Z,38.60
2019-03-17T09:26:49.317Z,35.95
2019-03-17T09:29:19.303Z,38.15
2019-03-17T09:31:49.126Z,37.83
2019-03-17T09:34:18.969Z,35.98
2019-03-17T09:36:48.937Z,35.92
2019-03-17T09:39:18.772Z,35.88
2019-03-17T09:41:48.674Z,40.60
2019-03-17T09:44:19.688Z,40.90
2019-03-17T09:46:49.586Z,34.92
2019-03-17T09:49:19.484Z,34.18
2019-03-17T09:51:49.398Z,32.67
2019-03-17T09:54:19.365Z,33.15
2019-03-17T09:56:49.373Z,30.92
2019-03-17T09:59:19.273Z,30.88
2019-03-17T10:01:49.185Z,29.80
2019-03-17T10:04:19.096Z,27.77
2019-03-17T10:06:49.014Z,28.25
2019-03-17T10:09:18.913Z,26.27
2019-03-17T10:11:48.892Z,23.57
2019-03-17T10:14:18.733Z,25.57
2019-03-17T10:16:48.771Z,22.93
2019-03-17T10:19:18.755Z,23.15
2019-03-17T10:21:48.729Z,20.02
2019-03-17T10:24:18.642Z,20.37
2019-03-17T10:26:48.633Z,19.87
2019-03-17T10:29:18.476Z,22.02
2019-03-17T10:31:48.309Z,20.02
2019-03-17T10:34:18.228Z,19.95
2019-03-17T10:36:48.207Z,19.60
2019-03-17T10:39:18.185Z,19.90
2019-03-17T10:41:48.079Z,19.50
2019-03-17T10:44:18.124Z,18.75
2019-03-17T10:46:47.990Z,19.02
2019-03-17T10:49:17.896Z,18.70
2019-03-17T10:51:47.803Z,18.55
2019-03-17T10:54:17.723Z,18.90
2019-03-17T10:56:47.675Z,19.17
2019-03-17T10:59:17.651Z,20.00
2019-03-17T11:01:47.728Z,19.30
2019-03-17T11:04:17.634Z,19.20
2019-03-17T11:06:47.866Z,20.08
2019-03-17T11:09:25.156Z,20.32
2019-03-17T11:11:49.404Z,20.23
2019-03-17T11:14:20.303Z,20.37
2019-03-17T11:16:50.285Z,20.57
2019-03-17T11:19:20.188Z,19.12
2019-03-17T11:21:50.092Z,20.62
2019-03-17T11:24:19.938Z,19.12
2019-03-17T11:26:49.828Z,19.42
2019-03-17T11:29:19.674Z,19.80
2019-03-17T11:31:49.504Z,20.52
2019-03-17T11:34:19.495Z,19.23
2019-03-17T11:36:49.472Z,20.77
2019-03-17T11:39:19.313Z,20.80
2019-03-17T11:41:49.146Z,21.55
2019-03-17T11:44:19.891Z,21.37
2019-03-17T11:46:49.728Z,21.00
2019-03-17T11:49:19.729Z,20.97
2019-03-17T11:51:49.648Z,20.65
2019-03-17T11:54:20.576Z,21.87
2019-03-17T11:56:50.628Z,21.77
2019-03-17T11:59:20.539Z,21.07
2019-03-17T12:01:50.452Z,23.57
2019-03-17T12:04:20.424Z,21.87
2019-03-17T12:06:50.412Z,22.77
2019-03-17T12:09:28.960Z,24.23
2019-03-17T12:11:51.907Z,23.38
2019-03-17T12:14:21.813Z,22.52
2019-03-17T12:16:51.736Z,23.47
2019-03-17T12:19:21.624Z,22.93
2019-03-17T12:21:51.589Z,24.02
2019-03-17T12:24:21.495Z,21.65
2019-03-17T12:26:51.401Z,22.62
2019-03-17T12:29:21.389Z,23.40
2019-03-17T12:31:51.224Z,23.07
2019-03-17T12:34:28.240Z,22.17
2019-03-17T12:36:52.742Z,22.50
2019-03-17T12:39:22.582Z,22.73
2019-03-17T12:41:52.476Z,23.07
2019-03-17T12:44:22.459Z,22.25
2019-03-17T12:46:52.424Z,21.87
2019-03-17T12:49:22.373Z,21.75
2019-03-17T12:51:52.282Z,21.60
2019-03-17T12:54:22.194Z,21.55
2019-03-17T12:56:52.288Z,21.82
2019-03-17T12:59:22.190Z,20.68
2019-03-17T13:01:52.102Z,20.95
2019-03-17T13:04:22.000Z,21.68
2019-03-17T13:06:51.922Z,21.62
2019-03-17T13:09:21.961Z,21.10
2019-03-17T13:11:51.936Z,22.40
2019-03-17T13:14:21.849Z,21.33
2019-03-17T13:16:51.873Z,21.07
2019-03-17T13:19:21.764Z,21.37
2019-03-17T13:21:51.674Z,21.70
2019-03-17T13:24:21.805Z,21.77
2019-03-17T13:26:51.705Z,21.17
2019-03-17T13:29:21.755Z,21.82
2019-03-17T13:31:51.584Z,21.17
2019-03-17T13:34:21.572Z,22.13
2019-03-17T13:36:51.550Z,22.00
2019-03-17T13:39:21.591Z,21.55
2019-03-17T13:41:51.629Z,20.92
2019-03-17T13:44:21.635Z,21.10
2019-03-17T13:46:51.678Z,21.80
2019-03-17T13:49:21.590Z,21.30
2019-03-17T13:51:51.515Z,20.92
2019-03-17T13:54:21.404Z,20.65
2019-03-17T13:56:51.397Z,22.05
2019-03-17T13:59:21.302Z,21.82
2019-03-17T14:01:51.388Z,20.35
2019-03-17T14:04:21.280Z,20.50
2019-03-17T14:06:51.183Z,20.68
2019-03-17T14:09:21.099Z,20.70
2019-03-17T14:11:51.004Z,22.42
2019-03-17T14:14:20.839Z,21.30
2019-03-17T14:16:50.752Z,21.70
2019-03-17T14:19:20.644Z,21.33
2019-03-17T14:21:52.884Z,20.52
2019-03-17T14:24:22.852Z,20.37
2019-03-17T14:26:52.833Z,20.62
2019-03-17T14:29:22.675Z,20.72
2019-03-17T14:31:52.728Z,21.17
2019-03-17T14:34:22.624Z,20.48
2019-03-17T14:36:52.474Z,20.30
2019-03-17T14:39:22.441Z,19.95
2019-03-17T14:41:54.028Z,20.48
2019-03-17T14:44:23.864Z,20.17
2019-03-17T14:46:53.831Z,20.48
2019-03-17T14:49:23.829Z,19.95
2019-03-17T14:51:53.873Z,19.00
2019-03-17T14:54:25.344Z,19.50
2019-03-17T14:56:55.390Z,21.00
2019-03-17T14:59:25.219Z,20.10
2019-03-17T15:01:55.047Z,20.68
2019-03-17T15:04:24.957Z,20.48
2019-03-17T15:06:55.009Z,20.30
2019-03-17T15:09:24.903Z,20.15
2019-03-17T15:11:54.948Z,20.08
2019-03-17T15:14:24.994Z,20.68
2019-03-17T15:16:54.904Z,19.92
2019-03-17T15:19:24.735Z,19.73
2019-03-17T15:21:54.719Z,19.23
2019-03-17T15:24:24.739Z,20.97
2019-03-17T15:26:55.766Z,21.35
2019-03-17T15:29:25.664Z,21.37
2019-03-17T15:31:55.578Z,20.60
2019-03-17T15:34:25.411Z,21.27
2019-03-17T15:36:55.469Z,20.97
2019-03-17T15:39:25.356Z,21.60
2019-03-17T15:41:55.224Z,21.02
2019-03-17T15:44:25.094Z,20.70
2019-03-17T15:46:55.475Z,21.65
2019-03-17T15:49:25.447Z,22.10
2019-03-17T15:51:55.453Z,22.73
2019-03-17T15:54:25.273Z,23.25
2019-03-17T15:56:55.179Z,23.47
2019-03-17T15:59:25.093Z,22.52
2019-03-17T16:01:54.988Z,23.15
2019-03-17T16:04:24.845Z,23.52
2019-03-17T16:06:54.810Z,22.05
2019-03-17T16:09:24.720Z,21.75
2019-03-17T16:11:54.553Z,21.80
2019-03-17T16:14:24.406Z,23.22
2019-03-17T16:16:54.372Z,23.10
2019-03-17T16:19:24.275Z,22.52
2019-03-17T16:21:54.185Z,21.93
2019-03-17T16:24:25.632Z,22.22
2019-03-17T16:26:55.603Z,22.90
2019-03-17T16:29:25.665Z,21.93
2019-03-17T16:31:55.588Z,22.00
2019-03-17T16:34:25.555Z,21.65
2019-03-17T16:36:55.422Z,20.60
2019-03-17T16:39:25.332Z,21.57
2019-03-17T16:41:56.276Z,21.73
2019-03-17T16:44:26.167Z,21.40
2019-03-17T16:46:56.145Z,20.92
2019-03-17T16:49:26.103Z,20.55
2019-03-17T16:51:56.099Z,20.32
2019-03-17T16:54:26.060Z,19.45
2019-03-17T16:56:55.978Z,21.27
2019-03-17T16:59:26.872Z,23.90
2019-03-17T17:01:56.818Z,23.38
2019-03-17T17:04:26.781Z,23.38
2019-03-17T17:06:56.899Z,23.57
2019-03-17T17:09:26.816Z,23.38
2019-03-17T17:11:57.949Z,24.37
2019-03-17T17:14:28.928Z,23.38
2019-03-17T17:16:58.976Z,22.85
2019-03-17T17:19:29.103Z,23.20
2019-03-17T17:21:59.104Z,22.27
2019-03-17T17:24:29.482Z,24.02
2019-03-17T17:26:59.465Z,24.30
2019-03-17T17:29:29.584Z,23.85
2019-03-17T17:31:59.554Z,24.12
2019-03-17T17:34:29.529Z,23.83
2019-03-17T17:36:59.449Z,24.40
2019-03-17T17:39:29.333Z,24.85
2019-03-17T17:42:08.372Z,25.75
2019-03-17T17:44:30.781Z,23.83
2019-03-17T17:47:00.687Z,24.30
2019-03-17T17:49:30.666Z,25.23
2019-03-17T17:52:03.442Z,26.15
2019-03-17T17:54:32.437Z,25.55
2019-03-17T17:57:02.352Z,25.85
2019-03-17T17:59:32.340Z,25.82
2019-03-17T18:02:02.386Z,25.70
2019-03-17T18:04:32.211Z,26.42
2019-03-17T18:07:02.191Z,26.62
2019-03-17T18:09:32.175Z,24.55
2019-03-17T18:12:02.162Z,27.35
2019-03-17T18:14:32.202Z,26.27
2019-03-17T18:17:02.194Z,25.82
2019-03-17T18:19:32.156Z,26.45
2019-03-17T18:22:03.466Z,26.05
2019-03-17T18:24:33.432Z,25.80
2019-03-17T18:27:03.401Z,26.52
2019-03-17T18:29:33.305Z,26.45
2019-03-17T18:32:03.152Z,25.27
2019-03-17T18:34:32.992Z,26.33
2019-03-17T18:37:02.819Z,27.35
2019-03-17T18:39:32.676Z,28.23
2019-03-17T18:42:02.570Z,26.55
2019-03-17T18:44:32.422Z,27.40
2019-03-17T18:47:02.263Z,26.17
2019-03-17T18:49:32.243Z,27.00
2019-03-17T18:52:02.224Z,27.82
2019-03-17T18:54:32.165Z,28.87
2019-03-17T18:57:02.147Z,29.87
2019-03-17T18:59:32.090Z,31.40
2019-03-17T19:02:02.075Z,32.98
2019-03-17T19:04:32.044Z,32.67
2019-03-17T19:07:02.171Z,32.17
2019-03-17T19:09:32.147Z,32.17
2019-03-17T19:12:02.128Z,32.50
2019-03-17T19:14:32.094Z,32.42
2019-03-17T19:17:02.010Z,33.20
2019-03-17T19:19:32.055Z,35.10
2019-03-17T19:22:02.112Z,36.53
2019-03-17T19:24:32.014Z,36.17
2019-03-17T19:27:01.955Z,35.43
2019-03-17T19:29:31.776Z,36.55
2019-03-17T19:32:01.756Z,35.48
2019-03-17T19:34:31.745Z,34.15
2019-03-17T19:37:01.774Z,32.95
2019-03-17T19:39:31.788Z,33.42
2019-03-17T19:42:01.763Z,34.48
2019-03-17T19:44:31.798Z,33.95
2019-03-17T19:47:01.681Z,30.08
2019-03-17T19:49:31.596Z,28.80
2019-03-17T19:52:01.558Z,27.20
2019-03-17T19:54:31.470Z,28.07
2019-03-17T19:57:01.376Z,28.07
2019-03-17T19:59:31.389Z,26.97
2019-03-17T20:02:01.360Z,26.27
2019-03-17T20:04:35.194Z,26.30
2019-03-17T20:07:02.734Z,25.32
2019-03-17T20:09:32.696Z,26.48
2019-03-17T20:12:02.611Z,27.77
2019-03-17T20:14:32.587Z,26.77
2019-03-17T20:17:02.512Z,27.27
2019-03-17T20:19:32.485Z,26.10
2019-03-17T20:22:02.407Z,25.45
2019-03-17T20:24:32.367Z,26.10
2019-03-17T20:27:02.351Z,23.45
2019-03-17T20:29:32.423Z,24.15
2019-03-17T20:32:03.388Z,24.27
2019-03-17T20:34:37.655Z,22.25
2019-03-17T20:37:07.595Z,22.95
2019-03-17T20:39:37.560Z,21.52
2019-03-17T20:42:07.726Z,20.62
2019-03-17T20:44:37.997Z,20.12
2019-03-17T20:47:07.952Z,20.05
2019-03-17T20:49:37.770Z,20.37
2019-03-17T20:52:07.615Z,20.27
2019-03-17T20:54:37.512Z,19.52
2019-03-17T20:57:07.408Z,19.48
2019-03-17T20:59:37.329Z,19.90
2019-03-17T21:02:07.242Z,20.17
2019-03-17T21:04:37.169Z,18.02
2019-03-17T21:07:07.167Z,18.35
2019-03-17T21:09:37.079Z,17.42
2019-03-17T21:12:07.052Z,16.67
2019-03-17T21:14:37.099Z,17.27
2019-03-17T21:17:07.087Z,16.15
2019-03-17T21:19:36.926Z,15.55
2019-03-17T21:22:06.832Z,14.85
2019-03-17T21:24:36.808Z,15.95
2019-03-17T21:27:06.712Z,14.78
2019-03-17T21:29:36.688Z,13.75
2019-03-17T21:32:06.615Z,14.50
2019-03-17T21:34:36.461Z,14.53
2019-03-17T21:37:06.693Z,14.98
2019-03-17T21:39:36.733Z,14.03
2019-03-17T21:42:06.631Z,14.47
2019-03-17T21:44:38.507Z,13.45
2019-03-17T21:47:08.081Z,14.10
2019-03-17T21:49:38.781Z,13.38
2019-03-17T21:52:08.686Z,14.20
2019-03-17T21:54:38.735Z,13.48
2019-03-17T21:57:08.638Z,13.43
2019-03-17T21:59:38.635Z,14.33
2019-03-17T22:02:13.036Z,13.65
2019-03-17T22:04:39.975Z,13.72
2019-03-17T22:07:09.950Z,11.88
2019-03-17T22:09:40.857Z,13.08
2019-03-17T22:12:10.908Z,12.55
2019-03-17T22:14:40.975Z,12.18
2019-03-17T22:17:10.870Z,12.50
2019-03-17T22:19:40.769Z,12.33
2019-03-17T22:22:10.758Z,12.53
2019-03-17T22:24:40.655Z,12.82
2019-03-17T22:27:10.559Z,11.12
2019-03-17T22:29:40.600Z,12.33
2019-03-17T22:32:10.517Z,12.23
2019-03-17T22:34:40.483Z,11.63
2019-03-17T22:37:10.387Z,10.75
2019-03-17T22:39:40.297Z,10.78
2019-03-17T22:42:10.197Z,12.13
2019-03-17T22:44:40.159Z,11.00
2019-03-17T22:47:10.068Z,10.80
2019-03-17T22:49:40.043Z,10.70
2019-03-17T22:52:10.013Z,11.08
2019-03-17T22:54:39.840Z,10.28
2019-03-17T22:57:09.853Z,10.80
2019-03-17T22:59:39.756Z,10.40
2019-03-17T23:02:09.643Z,10.80
2019-03-17T23:04:39.553Z,9.90
2019-03-17T23:07:09.447Z,10.72
2019-03-17T23:09:39.362Z,9.38
2019-03-17T23:12:09.246Z,9.70
2019-03-17T23:14:40.683Z,9.90
2019-03-17T23:17:10.651Z,9.43
2019-03-17T23:19:40.564Z,9.00
2019-03-17T23:22:10.460Z,9.23
2019-03-17T23:24:41.359Z,8.85
2019-03-17T23:27:11.337Z,10.13
2019-03-17T23:29:41.272Z,9.40
2019-03-17T23:32:11.232Z,9.78
2019-03-17T23:34:41.125Z,9.88
2019-03-17T23:37:11.103Z,9.53
2019-03-17T23:39:40.988Z,9.50
2019-03-17T23:42:10.891Z,9.18
2019-03-17T23:44:48.746Z,8.98
2019-03-17T23:47:12.515Z,9.53
2019-03-17T23:49:42.417Z,9.45
2019-03-17T23:52:12.327Z,9.43
2019-03-17T23:54:42.284Z,10.40
2019-03-17T23:57:12.111Z,10.58
2019-03-17T23:59:41.951Z,10.25
